Huvudsida
METAR-TAF:

METAR-TAF

Flygplatser :

Asahikawa, Japan

latitud: 43-40N, longitud: 142-27E, höjd: 208 m

Aktuellt väderrapport

Denna rapport gjordes för 1 timme och 0 minuter sedan, klockan 14:00 UTC
Vind 2 kt varierande vindriktning
Temperatur 19°C
Fuktighet 83%
Tryck 1016 hPa
Sikt 10 km eller mer

METAR: RJEC 141400Z AUTO VRB02KT 9999 NSC 19/16 Q1016

Tid: 00:00 (15:00 UTC)

Väderprognos

Denna rapport gjordes för 3 timmar och 55 minuter sedan, klockan 11:05 UTC
Prognos gäller från 14 kl. 12 UTC till 15 kl. 18 UTC
Vind 5 kt från nord/nordväst
Sikt 10 km eller mer
Få moln på en höjd av 2000 ft
Blir
från 14 kl. 12 UTC till 14 kl. 14 UTC
Vind 5 kt från syd
Blir
från 15 kl. 00 UTC till 15 kl. 03 UTC
Vind 7 kt från nordväst
Blir
från 15 kl. 09 UTC till 15 kl. 12 UTC
Vind 6 kt från syd

TAF: RJEC 141105Z 1412/1518 33005KT 9999 FEW020 BECMG 1412/1414 17005KT BECMG 1500/1503 31007KT BECMG 1509/1512 17006KT

Aktuella väderrapporter och prognoser från 4000 flygplatser (METAR- och TAF-rapporter).

De tillgängliga stationerna syns som gula och röda prickar på kartan.

För musen över prickarna för att se namnen på stationerna.

Klicka sedan för att få väderrapporter och prognoser.

För att ändra kartan: Klicka på de gröna knapparna med ett svart kors på för att zooma in; den gröna knappen med ett streck på för att zooma ut; eller på de gröna pilarna för angränsande kartor.


METAR-TAF: